Time;durP1;ratioP1;P1;durP2;ratioP2;P2;SDS_P1;SDS_P2;PMS_P1;PMS_P2;Temp;Humidity;BMP_temperature;BMP_pressure;BME280_temperature;BME280_humidity;BME280_pressure;Samples;Min_cycle;Max_cycle;Signal;HPM_P1;HPM_P2
2021/01/08 00:00:07;;;;;;;20.38;10.23;;;5.50;91.80;;;;;;5050523;28;20031;-74
2021/01/08 00:02:33;;;;;;;20.17;11.20;;;5.50;91.90;;;;;;5050156;28;20575;-75
2021/01/08 00:04:58;;;;;;;19.65;10.43;;;5.50;91.90;;;;;;5052115;28;20041;-74
2021/01/08 00:07:24;;;;;;;18.48;10.57;;;5.50;91.90;;;;;;5056817;28;20025;-74
2021/01/08 00:09:49;;;;;;;17.98;10.00;;;5.40;91.90;;;;;;5060715;28;20044;-74
2021/01/08 00:12:15;;;;;;;19.38;10.68;;;5.40;91.90;;;;;;5050891;28;20067;-74
2021/01/08 00:14:40;;;;;;;19.10;10.52;;;5.50;91.90;;;;;;5049352;28;20032;-74
2021/01/08 00:17:05;;;;;;;21.08;11.00;;;5.40;91.90;;;;;;5050570;28;20100;-74
2021/01/08 00:19:31;;;;;;;18.58;10.38;;;5.50;92.00;;;;;;5050516;28;20501;-74
2021/01/08 00:21:57;;;;;;;20.15;10.82;;;5.50;92.00;;;;;;5050983;28;20021;-73
2021/01/08 00:24:23;;;;;;;19.75;10.65;;;5.50;92.00;;;;;;5068004;28;20056;-74
2021/01/08 00:26:48;;;;;;;21.52;11.50;;;5.50;92.00;;;;;;5054465;28;20362;-74
2021/01/08 00:29:15;;;;;;;18.27;10.82;;;5.50;92.00;;;;;;5063331;28;20112;-74
2021/01/08 00:31:46;;;;;;;18.35;10.20;;;5.50;92.00;;;;;;5056591;28;20121;-75
2021/01/08 00:34:14;;;;;;;20.30;10.90;;;5.40;92.00;;;;;;5054896;28;20029;-74
2021/01/08 00:36:53;;;;;;;23.33;12.20;;;5.40;92.10;;;;;;5054486;28;20029;-74
2021/01/08 00:39:21;;;;;;;21.13;11.02;;;5.40;92.10;;;;;;5054109;28;20029;-73
2021/01/08 00:41:47;;;;;;;18.75;10.45;;;5.50;92.20;;;;;;5054577;28;20483;-74
2021/01/08 00:44:13;;;;;;;21.58;11.32;;;5.40;92.20;;;;;;5053264;28;20037;-74
2021/01/08 00:46:41;;;;;;;18.25;10.55;;;5.40;92.20;;;;;;5054939;28;20024;-76
2021/01/08 00:49:07;;;;;;;18.85;11.02;;;5.50;92.20;;;;;;5070523;28;20451;-74
2021/01/08 00:51:33;;;;;;;20.50;11.15;;;5.40;92.20;;;;;;5053876;28;20086;-74
2021/01/08 00:53:59;;;;;;;17.95;10.15;;;5.50;92.20;;;;;;5060798;28;20052;-74
2021/01/08 00:56:25;;;;;;;20.63;10.82;;;5.50;92.30;;;;;;5052534;28;20028;-74
2021/01/08 00:58:50;;;;;;;24.95;13.52;;;5.50;92.20;;;;;;5054034;28;20033;-75
2021/01/08 01:01:17;;;;;;;23.55;11.57;;;5.40;92.20;;;;;;5068438;28;20029;-74
2021/01/08 01:03:42;;;;;;;22.98;12.50;;;5.50;92.30;;;;;;5054671;28;20029;-75
2021/01/08 01:06:08;;;;;;;19.70;11.20;;;5.50;92.30;;;;;;5069226;28;20325;-75
2021/01/08 01:08:34;;;;;;;19.02;10.93;;;5.50;92.30;;;;;;5053898;28;20032;-74
2021/01/08 01:11:00;;;;;;;22.42;12.23;;;5.50;92.30;;;;;;5053217;28;20155;-75
2021/01/08 01:13:26;;;;;;;22.23;12.10;;;5.50;92.30;;;;;;5053939;28;20370;-75
2021/01/08 01:15:51;;;;;;;20.33;11.20;;;5.50;92.30;;;;;;5053282;28;20029;-75
2021/01/08 01:18:17;;;;;;;18.77;11.90;;;5.50;92.30;;;;;;5053820;28;20043;-75
2021/01/08 01:20:43;;;;;;;21.45;12.23;;;5.50;92.30;;;;;;5053842;28;20043;-75
2021/01/08 01:23:09;;;;;;;23.40;12.05;;;5.50;92.30;;;;;;5053733;28;20017;-75
2021/01/08 01:25:35;;;;;;;20.45;11.50;;;5.50;92.30;;;;;;5053972;28;20036;-75
2021/01/08 01:28:00;;;;;;;20.75;11.48;;;5.60;92.30;;;;;;5053566;28;20032;-75
2021/01/08 01:30:26;;;;;;;22.15;11.63;;;5.50;92.30;;;;;;5056826;28;20048;-75
2021/01/08 01:32:52;;;;;;;23.25;13.02;;;5.50;92.30;;;;;;5074615;28;20032;-75
2021/01/08 01:35:17;;;;;;;20.05;11.88;;;5.50;92.30;;;;;;5064260;28;20040;-75
2021/01/08 01:37:43;;;;;;;21.23;12.60;;;5.60;92.30;;;;;;5063815;28;20040;-75
2021/01/08 01:40:09;;;;;;;18.45;10.68;;;5.60;92.30;;;;;;5067455;28;20454;-75
2021/01/08 01:42:34;;;;;;;19.98;10.85;;;5.60;92.30;;;;;;5057813;28;20079;-74
2021/01/08 01:45:00;;;;;;;22.63;12.38;;;5.60;92.30;;;;;;5056226;28;20057;-74
2021/01/08 01:47:27;;;;;;;20.33;11.88;;;5.60;92.20;;;;;;5071799;28;20393;-75
2021/01/08 01:49:53;;;;;;;19.55;11.43;;;5.60;92.20;;;;;;5075116;28;20029;-75
2021/01/08 01:52:19;;;;;;;18.95;11.00;;;5.50;92.20;;;;;;5059248;28;20535;-74
2021/01/08 01:54:44;;;;;;;24.80;12.60;;;5.50;92.30;;;;;;5056386;28;20378;-74
2021/01/08 01:57:10;;;;;;;21.25;12.23;;;5.50;92.30;;;;;;5056800;28;20459;-74
2021/01/08 01:59:35;;;;;;;20.52;11.35;;;5.50;92.50;;;;;;5057431;28;20025;-74
2021/01/08 02:02:05;;;;;;;21.25;12.30;;;5.60;92.30;;;;;;5056650;28;20032;-74
2021/01/08 02:04:31;;;;;;;22.52;12.18;;;5.50;92.30;;;;;;5063898;28;20044;-74
2021/01/08 02:06:57;;;;;;;18.00;11.02;;;5.50;92.30;;;;;;5051902;28;20048;-74
2021/01/08 02:09:23;;;;;;;22.20;11.45;;;5.50;92.30;;;;;;5054018;28;20029;-75
2021/01/08 02:11:57;;;;;;;22.83;12.02;;;5.60;92.30;;;;;;5057048;28;20039;-75
2021/01/08 02:14:29;;;;;;;22.58;11.82;;;5.60;92.30;;;;;;5057090;28;20028;-75
2021/01/08 02:16:57;;;;;;;21.40;11.73;;;5.60;92.30;;;;;;5055290;28;20025;-74
2021/01/08 02:19:29;;;;;;;24.25;12.60;;;5.60;92.20;;;;;;5052564;28;20059;-74
2021/01/08 02:22:12;;;;;;;22.45;11.77;;;5.60;92.20;;;;;;5052401;28;20029;-75
2021/01/08 02:24:54;;;;;;;22.05;12.50;;;5.50;92.20;;;;;;5052558;28;20072;-75
2021/01/08 02:27:20;;;;;;;22.88;12.20;;;5.50;92.20;;;;;;5062086;28;20025;-74
2021/01/08 02:29:46;;;;;;;20.42;11.68;;;5.50;92.20;;;;;;5053921;28;20547;-75
2021/01/08 02:32:12;;;;;;;18.75;10.93;;;5.50;92.30;;;;;;5073017;28;20032;-74
2021/01/08 02:34:38;;;;;;;20.75;11.68;;;5.50;92.30;;;;;;5057950;28;20044;-75
2021/01/08 02:37:05;;;;;;;21.42;12.35;;;5.50;92.30;;;;;;5054169;28;20021;-75
2021/01/08 02:39:31;;;;;;;22.13;11.75;;;5.50;92.30;;;;;;5052764;28;22231;-75
2021/01/08 02:41:57;;;;;;;22.88;12.30;;;5.50;92.50;;;;;;5067288;28;20016;-75
2021/01/08 02:44:23;;;;;;;21.80;12.90;;;5.50;92.30;;;;;;5085680;28;20034;-75
2021/01/08 02:46:49;;;;;;;20.65;11.95;;;5.50;92.30;;;;;;5075116;28;20029;-74
2021/01/08 02:49:14;;;;;;;21.17;12.88;;;5.50;92.30;;;;;;5071649;28;20549;-76
2021/01/08 02:51:40;;;;;;;22.15;12.02;;;5.40;92.30;;;;;;5055667;28;20029;-75
2021/01/08 02:54:08;;;;;;;21.52;12.15;;;5.40;92.30;;;;;;5055451;28;20417;-74
2021/01/08 02:56:44;;;;;;;23.05;12.73;;;5.40;92.30;;;;;;5055221;28;20064;-75
2021/01/08 02:59:10;;;;;;;21.08;12.13;;;5.40;92.40;;;;;;5059024;28;20029;-75
2021/01/08 03:01:37;;;;;;;22.85;12.07;;;5.40;92.30;;;;;;5052911;28;20032;-75
2021/01/08 03:04:03;;;;;;;24.55;12.57;;;5.40;92.40;;;;;;5052409;28;20045;-76
2021/01/08 03:06:30;;;;;;;24.05;12.10;;;5.40;92.40;;;;;;5052689;28;20064;-73
2021/01/08 03:09:00;;;;;;;23.70;13.32;;;5.40;92.40;;;;;;5055888;28;20017;-74
2021/01/08 03:11:26;;;;;;;23.83;13.00;;;5.40;92.40;;;;;;5054395;28;20032;-74
2021/01/08 03:13:53;;;;;;;23.73;13.00;;;5.40;92.40;;;;;;5056682;28;20017;-74
2021/01/08 03:16:18;;;;;;;22.05;12.02;;;5.40;92.40;;;;;;5050511;28;20051;-73
2021/01/08 03:18:44;;;;;;;21.23;12.48;;;5.30;92.40;;;;;;5051480;28;20021;-74
2021/01/08 03:21:09;;;;;;;20.65;11.63;;;5.30;92.40;;;;;;5051560;28;20036;-73
2021/01/08 03:23:35;;;;;;;20.33;12.20;;;5.30;92.40;;;;;;5050114;28;20112;-73
2021/01/08 03:26:00;;;;;;;20.27;11.63;;;5.30;92.50;;;;;;5050125;28;20029;-74
2021/01/08 03:28:26;;;;;;;22.52;12.02;;;5.30;92.50;;;;;;5056655;28;20427;-74
2021/01/08 03:30:51;;;;;;;25.65;13.63;;;5.30;92.50;;;;;;5057584;28;20429;-74
2021/01/08 03:33:17;;;;;;;22.95;11.75;;;5.30;92.60;;;;;;5068449;28;20020;-75
2021/01/08 03:35:42;;;;;;;24.40;12.23;;;5.30;92.60;;;;;;5052234;28;20567;-74
2021/01/08 03:38:08;;;;;;;23.17;12.63;;;5.30;92.60;;;;;;5050969;28;20531;-76
2021/01/08 03:40:36;;;;;;;20.50;11.75;;;5.30;92.60;;;;;;5053599;28;20162;-74
2021/01/08 03:43:02;;;;;;;22.88;13.02;;;5.30;92.60;;;;;;5051668;28;20505;-74
2021/01/08 03:45:27;;;;;;;22.65;12.98;;;5.30;92.60;;;;;;5070965;28;20144;-75
2021/01/08 03:47:53;;;;;;;21.98;12.40;;;5.30;92.60;;;;;;5061355;28;20014;-75
2021/01/08 03:50:18;;;;;;;23.23;12.55;;;5.40;92.90;;;;;;5049171;28;20052;-75
2021/01/08 03:52:44;;;;;;;22.13;12.50;;;5.30;92.60;;;;;;5051172;28;20092;-75
2021/01/08 03:55:10;;;;;;;24.05;13.00;;;5.30;92.70;;;;;;5051181;28;20136;-75
2021/01/08 03:57:35;;;;;;;22.83;12.73;;;5.30;92.70;;;;;;5054229;28;20028;-75
2021/01/08 04:00:01;;;;;;;27.83;13.68;;;5.30;92.70;;;;;;5054665;28;20028;-74
2021/01/08 04:02:27;;;;;;;26.17;13.82;;;5.30;92.70;;;;;;5054646;28;20033;-75
2021/01/08 04:04:52;;;;;;;25.90;13.80;;;5.30;92.70;;;;;;5055815;28;20044;-75
2021/01/08 04:07:18;;;;;;;22.83;12.27;;;5.30;92.70;;;;;;5055247;28;20029;-75
2021/01/08 04:09:43;;;;;;;24.77;13.50;;;5.30;92.70;;;;;;5054040;28;20123;-75
2021/01/08 04:12:09;;;;;;;23.92;13.30;;;5.30;92.70;;;;;;5054905;28;20032;-75
2021/01/08 04:14:34;;;;;;;24.33;12.82;;;5.30;92.70;;;;;;5055270;28;20037;-76
2021/01/08 04:17:00;;;;;;;24.02;12.98;;;5.30;92.70;;;;;;5054655;28;20037;-76
2021/01/08 04:19:25;;;;;;;23.40;12.73;;;5.30;92.70;;;;;;5054124;28;20090;-75
2021/01/08 04:21:51;;;;;;;26.98;13.77;;;5.30;92.70;;;;;;5060108;28;20105;-75
2021/01/08 04:24:16;;;;;;;24.08;12.95;;;5.30;92.70;;;;;;5053810;28;20500;-75
2021/01/08 04:26:42;;;;;;;22.73;12.32;;;5.30;92.60;;;;;;5053624;28;20107;-75
2021/01/08 04:29:07;;;;;;;21.10;12.25;;;5.30;92.60;;;;;;5054061;28;20032;-75
2021/01/08 04:31:33;;;;;;;24.15;13.05;;;5.30;92.60;;;;;;5053813;28;20036;-75
2021/01/08 04:33:58;;;;;;;26.13;13.80;;;5.30;92.60;;;;;;5054359;28;20025;-75
2021/01/08 04:36:24;;;;;;;23.08;12.93;;;5.30;92.70;;;;;;5058120;28;20052;-75
2021/01/08 04:38:50;;;;;;;21.13;12.45;;;5.30;92.70;;;;;;5054391;28;20024;-75
2021/01/08 04:41:16;;;;;;;24.40;12.93;;;5.20;92.70;;;;;;5054327;28;20588;-75
2021/01/08 04:43:41;;;;;;;23.63;13.23;;;5.20;92.70;;;;;;5053794;28;20033;-75
2021/01/08 04:46:12;;;;;;;25.67;12.75;;;5.20;92.70;;;;;;5053630;28;20094;-75
2021/01/08 04:48:38;;;;;;;23.25;12.60;;;5.10;92.80;;;;;;5053896;28;20021;-76
2021/01/08 04:51:04;;;;;;;25.10;14.38;;;5.10;92.80;;;;;;5054294;28;20119;-75
2021/01/08 04:53:32;;;;;;;26.63;13.63;;;5.10;92.80;;;;;;5054745;28;20044;-75
2021/01/08 04:56:02;;;;;;;22.90;13.35;;;5.10;92.80;;;;;;5052761;28;20053;-75
2021/01/08 04:58:31;;;;;;;23.83;12.65;;;5.10;92.90;;;;;;5053929;28;20067;-76
2021/01/08 05:00:57;;;;;;;24.85;13.65;;;5.10;92.90;;;;;;5053922;28;20145;-75
2021/01/08 05:03:23;;;;;;;23.65;13.65;;;5.10;92.90;;;;;;5053747;28;20055;-75
2021/01/08 05:05:48;;;;;;;26.20;13.32;;;5.10;92.90;;;;;;5053007;28;20047;-76
2021/01/08 05:08:14;;;;;;;25.65;13.18;;;5.10;92.90;;;;;;5052619;28;20033;-75
2021/01/08 05:10:39;;;;;;;24.90;14.20;;;5.00;93.00;;;;;;5053633;28;20032;-76
2021/01/08 05:13:05;;;;;;;23.63;13.00;;;5.00;93.00;;;;;;5054173;28;20039;-75
2021/01/08 05:15:30;;;;;;;26.55;14.43;;;5.00;93.00;;;;;;5053874;28;20036;-75
2021/01/08 05:17:56;;;;;;;25.30;13.57;;;5.00;93.10;;;;;;5053084;28;20017;-74
2021/01/08 05:20:22;;;;;;;28.17;14.77;;;5.00;93.10;;;;;;5053893;28;20021;-71
2021/01/08 05:22:50;;;;;;;24.48;13.50;;;5.00;93.10;;;;;;5052299;28;20489;-70
2021/01/08 05:25:16;;;;;;;22.52;13.10;;;5.10;93.10;;;;;;5052850;28;20094;-70
2021/01/08 05:27:42;;;;;;;23.90;13.07;;;5.10;93.10;;;;;;5057702;28;20024;-70
2021/01/08 05:30:14;;;;;;;23.88;13.43;;;5.10;93.10;;;;;;5067909;28;20036;-70
2021/01/08 05:32:40;;;;;;;25.67;14.38;;;5.10;93.10;;;;;;5062408;28;20028;-71
2021/01/08 05:35:06;;;;;;;23.95;12.93;;;5.10;93.00;;;;;;5065506;28;20020;-71
2021/01/08 05:37:32;;;;;;;24.73;13.02;;;5.10;93.00;;;;;;5064075;28;20151;-72
2021/01/08 05:40:01;;;;;;;24.33;13.07;;;5.10;93.00;;;;;;5051468;28;20025;-72
2021/01/08 05:42:27;;;;;;;24.20;13.32;;;5.10;93.10;;;;;;5053266;28;20044;-72
2021/01/08 05:44:53;;;;;;;25.58;13.98;;;5.10;93.10;;;;;;5053101;28;20037;-72
2021/01/08 05:47:20;;;;;;;25.55;13.27;;;5.10;93.10;;;;;;5052388;28;20025;-72
2021/01/08 05:49:49;;;;;;;26.05;13.23;;;5.10;93.10;;;;;;5051721;28;20519;-72
2021/01/08 05:52:15;;;;;;;23.58;13.65;;;5.10;93.10;;;;;;5059304;28;20045;-72
2021/01/08 05:54:41;;;;;;;23.48;13.45;;;5.00;93.10;;;;;;5055714;28;20071;-72
2021/01/08 05:57:06;;;;;;;25.60;13.77;;;5.00;93.10;;;;;;5053877;28;20524;-72
2021/01/08 05:59:32;;;;;;;23.85;13.30;;;5.00;93.10;;;;;;5052948;28;20033;-71
2021/01/08 06:01:58;;;;;;;25.98;14.32;;;5.10;93.10;;;;;;5071685;28;20139;-72
2021/01/08 06:04:32;;;;;;;25.70;13.32;;;5.10;93.10;;;;;;5069722;28;20119;-71
2021/01/08 06:06:58;;;;;;;27.33;13.98;;;5.10;93.10;;;;;;5060763;28;20056;-71
2021/01/08 06:09:24;;;;;;;26.40;14.00;;;5.10;93.10;;;;;;5052569;28;20064;-71
2021/01/08 06:11:51;;;;;;;25.60;14.13;;;5.10;93.10;;;;;;5052673;28;20033;-71
2021/01/08 06:14:17;;;;;;;24.40;13.20;;;5.10;93.10;;;;;;5052990;28;20043;-72
2021/01/08 06:16:45;;;;;;;26.02;14.35;;;5.10;93.10;;;;;;5052779;28;20033;-71
2021/01/08 06:19:13;;;;;;;24.27;12.85;;;5.10;93.10;;;;;;5049774;28;20552;-72
2021/01/08 06:21:42;;;;;;;26.65;14.23;;;5.20;93.10;;;;;;5051905;28;20090;-71
2021/01/08 06:24:25;;;;;;;23.25;13.40;;;5.20;93.10;;;;;;5052276;28;20028;-71
2021/01/08 06:26:51;;;;;;;24.88;13.23;;;5.20;93.10;;;;;;5052274;28;20037;-72
2021/01/08 06:29:19;;;;;;;28.50;14.40;;;5.20;93.10;;;;;;5052228;28;20110;-72
2021/01/08 06:31:50;;;;;;;25.85;14.18;;;5.20;93.10;;;;;;5052358;28;20108;-71
2021/01/08 06:34:27;;;;;;;26.80;14.30;;;5.20;93.10;;;;;;5049030;28;20485;-71
2021/01/08 06:37:18;;;;;;;30.38;14.35;;;5.20;93.20;;;;;;5054480;28;20499;-72
2021/01/08 06:39:46;;;;;;;22.33;13.02;;;5.20;93.20;;;;;;5067969;28;20488;-72
2021/01/08 06:42:28;;;;;;;27.95;14.95;;;5.20;93.10;;;;;;5071968;28;20024;-71
2021/01/08 06:44:55;;;;;;;25.15;13.77;;;5.20;93.10;;;;;;5051879;28;20370;-71
2021/01/08 06:47:21;;;;;;;23.63;13.13;;;5.30;93.10;;;;;;5052285;28;20064;-71
2021/01/08 06:49:51;;;;;;;24.95;12.85;;;5.20;93.10;;;;;;5052413;28;20025;-71
2021/01/08 06:52:17;;;;;;;26.67;13.63;;;5.20;93.10;;;;;;5052171;28;20047;-71
2021/01/08 06:54:43;;;;;;;27.88;13.70;;;5.20;93.10;;;;;;5051706;28;20045;-72
2021/01/08 06:57:18;;;;;;;24.83;13.38;;;5.30;93.10;;;;;;5063198;28;20515;-72
2021/01/08 06:59:59;;;;;;;;;;;5.20;93.00;;;;;;5054904;28;20378;-72
2021/01/08 07:02:26;;;;;;;22.55;12.32;;;5.30;93.10;;;;;;5051976;28;19909;-72
2021/01/08 07:04:54;;;;;;;26.13;13.75;;;5.20;93.00;;;;;;5053218;28;20492;-72
2021/01/08 07:07:26;;;;;;;27.85;14.93;;;5.30;93.10;;;;;;5052051;28;20468;-72
2021/01/08 07:09:54;;;;;;;25.42;14.18;;;5.30;93.10;;;;;;5051498;28;20481;-72
2021/01/08 07:12:22;;;;;;;24.40;14.43;;;5.30;93.10;;;;;;5065175;28;20032;-72
2021/01/08 07:14:48;;;;;;;22.60;13.27;;;5.30;93.10;;;;;;5053715;28;20063;-71
2021/01/08 07:17:13;;;;;;;25.23;14.38;;;5.30;93.10;;;;;;5051565;28;20063;-71
2021/01/08 07:19:40;;;;;;;23.80;14.30;;;5.30;93.10;;;;;;5050466;28;20029;-72
2021/01/08 07:22:07;;;;;;;29.63;15.93;;;5.30;93.00;;;;;;5050522;28;20033;-72
2021/01/08 07:24:38;;;;;;;25.33;13.88;;;5.30;93.00;;;;;;5051449;28;20124;-72
2021/01/08 07:27:21;;;;;;;22.35;13.05;;;5.30;93.00;;;;;;5049824;28;20035;-72
2021/01/08 07:30:16;;;;;;;26.67;14.27;;;5.30;92.90;;;;;;5051543;28;20507;-71
2021/01/08 07:32:44;;;;;;;25.67;13.85;;;5.30;92.90;;;;;;5046220;28;20037;-71
2021/01/08 07:35:34;;;;;;;25.70;13.63;;;5.30;92.90;;;;;;5057510;28;20587;-71
2021/01/08 07:38:13;;;;;;;26.20;13.68;;;5.30;92.90;;;;;;5039588;28;20025;-71
2021/01/08 07:41:00;;;;;;;26.23;13.70;;;5.30;92.90;;;;;;5050379;28;20021;-71
2021/01/08 07:43:33;;;;;;;24.63;13.48;;;5.30;92.90;;;;;;5050488;28;20035;-66
2021/01/08 07:46:00;;;;;;;25.10;13.90;;;5.30;92.90;;;;;;5051664;28;20049;-67
2021/01/08 07:48:40;;;;;;;25.23;14.50;;;5.30;93.00;;;;;;5049447;28;20033;-67
2021/01/08 07:51:13;;;;;;;24.92;13.73;;;5.30;93.00;;;;;;5051010;28;20044;-68
2021/01/08 07:53:45;;;;;;;26.90;13.40;;;5.30;92.90;;;;;;5049788;28;20045;-68
2021/01/08 07:56:21;;;;;;;29.45;15.40;;;5.40;92.90;;;;;;5051432;28;20064;-69
2021/01/08 07:58:57;;;;;;;26.88;13.90;;;5.40;92.90;;;;;;5051156;28;20025;-71
2021/01/08 08:01:22;;;;;;;28.73;13.40;;;5.30;92.90;;;;;;5051333;28;20076;-72
2021/01/08 08:04:00;;;;;;;27.90;14.88;;;5.30;92.90;;;;;;5062854;28;20071;-72
2021/01/08 08:06:31;;;;;;;27.23;14.30;;;5.30;93.00;;;;;;5071765;28;20032;-71
2021/01/08 08:08:58;;;;;;;25.80;14.32;;;5.30;92.90;;;;;;5062828;28;20033;-71
2021/01/08 08:11:27;;;;;;;24.85;14.57;;;5.30;92.90;;;;;;5057943;28;20020;-70
2021/01/08 08:13:53;;;;;;;27.08;13.35;;;5.30;92.90;;;;;;5053039;28;20074;-71
2021/01/08 08:16:35;;;;;;;25.05;13.27;;;5.40;93.00;;;;;;5051224;28;20021;-72
2021/01/08 08:19:02;;;;;;;27.40;14.30;;;5.30;93.00;;;;;;5052069;28;20085;-70
2021/01/08 08:21:27;;;;;;;25.92;13.60;;;5.30;93.00;;;;;;5051279;28;20059;-70
2021/01/08 08:23:55;;;;;;;26.05;14.75;;;5.40;93.10;;;;;;5050799;28;20283;-70
2021/01/08 08:26:21;;;;;;;24.52;14.20;;;5.30;93.10;;;;;;5049143;28;20036;-70
2021/01/08 08:29:08;;;;;;;28.95;13.60;;;5.40;93.10;;;;;;5054660;28;20032;-70
2021/01/08 08:31:35;;;;;;;25.73;13.57;;;5.40;93.10;;;;;;5049915;28;20018;-71
2021/01/08 08:34:01;;;;;;;26.52;14.40;;;5.40;93.10;;;;;;5050665;28;20366;-71
2021/01/08 08:36:28;;;;;;;22.55;13.65;;;5.40;93.10;;;;;;5061650;28;20031;-69
2021/01/08 08:39:03;;;;;;;27.45;16.33;;;5.40;93.10;;;;;;5059873;28;20025;-69
2021/01/08 08:41:29;;;;;;;28.35;15.13;;;5.40;93.10;;;;;;5049664;28;20037;-70
2021/01/08 08:44:02;;;;;;;27.45;14.57;;;5.40;93.20;;;;;;5053151;28;20037;-70
2021/01/08 08:47:01;;;;;;;26.23;14.65;;;5.40;93.20;;;;;;5055195;28;20048;-70
2021/01/08 08:49:34;;;;;;;25.55;14.82;;;5.40;93.20;;;;;;5034355;28;20392;-70
2021/01/08 08:52:01;;;;;;;27.15;14.32;;;5.40;93.20;;;;;;5059004;28;20040;-70
2021/01/08 08:54:27;;;;;;;26.48;14.65;;;5.40;93.30;;;;;;5066723;28;20044;-70
2021/01/08 08:56:54;;;;;;;27.20;14.40;;;5.40;93.30;;;;;;5064144;28;20036;-70
2021/01/08 08:59:39;;;;;;;24.67;14.88;;;5.40;93.30;;;;;;5053979;28;20025;-70
2021/01/08 09:02:06;;;;;;;24.10;13.70;;;5.50;93.30;;;;;;5054169;28;20056;-71
2021/01/08 09:04:31;;;;;;;25.98;14.52;;;5.50;93.30;;;;;;5055932;28;20048;-71
2021/01/08 09:07:02;;;;;;;23.45;14.48;;;5.50;93.30;;;;;;5054185;28;20033;-71
2021/01/08 09:09:31;;;;;;;22.80;13.38;;;5.50;93.20;;;;;;5056415;28;20044;-70
2021/01/08 09:12:24;;;;;;;26.98;13.82;;;5.60;93.20;;;;;;5074199;28;20417;-70
2021/01/08 09:14:52;;;;;;;25.02;13.88;;;5.60;93.20;;;;;;5069357;28;20060;-70
2021/01/08 09:17:23;;;;;;;27.30;14.43;;;5.60;93.20;;;;;;5073137;28;20033;-70
2021/01/08 09:19:54;;;;;;;24.20;14.30;;;5.60;93.10;;;;;;5070158;28;20033;-71
2021/01/08 09:22:20;;;;;;;29.88;14.98;;;5.70;93.10;;;;;;5074280;28;20336;-70
2021/01/08 09:24:48;;;;;;;24.90;14.13;;;5.70;93.10;;;;;;5056872;28;20115;-70
2021/01/08 09:27:14;;;;;;;26.80;14.88;;;5.70;93.10;;;;;;5067275;28;20032;-71
2021/01/08 09:29:40;;;;;;;25.83;14.48;;;5.70;93.10;;;;;;5060187;28;20628;-71
2021/01/08 09:32:07;;;;;;;29.30;15.50;;;5.80;93.10;;;;;;5067793;28;20025;-71
2021/01/08 09:34:34;;;;;;;25.58;13.93;;;5.80;93.10;;;;;;5061638;28;20461;-71
2021/01/08 09:37:15;;;;;;;27.00;14.77;;;5.80;93.10;;;;;;5062767;28;20086;-71
2021/01/08 09:39:43;;;;;;;25.42;13.95;;;5.80;93.00;;;;;;5058198;28;20102;-71
2021/01/08 09:42:10;;;;;;;27.70;14.68;;;5.80;93.00;;;;;;5061229;28;20215;-70
2021/01/08 09:44:38;;;;;;;26.70;15.00;;;5.90;93.10;;;;;;5056219;28;20048;-70
2021/01/08 09:47:09;;;;;;;27.90;15.07;;;5.90;93.00;;;;;;5053536;28;20029;-70
2021/01/08 09:49:40;;;;;;;25.75;14.32;;;5.90;93.10;;;;;;5054981;28;20782;-72
2021/01/08 09:52:07;;;;;;;27.38;14.88;;;6.00;93.00;;;;;;5056347;28;20060;-70
2021/01/08 09:54:50;;;;;;;27.50;15.77;;;6.00;93.00;;;;;;5067802;28;20045;-70
2021/01/08 09:57:34;;;;;;;27.80;14.77;;;6.00;93.00;;;;;;5079078;28;20043;-70
2021/01/08 10:00:03;;;;;;;26.02;15.13;;;6.00;92.90;;;;;;5056749;28;20056;-70
2021/01/08 10:02:32;;;;;;;29.67;15.65;;;6.10;92.90;;;;;;5053030;28;20035;-70
2021/01/08 10:04:57;;;;;;;25.98;14.52;;;6.10;92.80;;;;;;5060284;28;20059;-71
2021/01/08 10:07:23;;;;;;;27.65;15.65;;;6.10;92.70;;;;;;5057717;28;20380;-70
2021/01/08 10:09:51;;;;;;;26.02;14.85;;;6.10;92.70;;;;;;5089070;28;20036;-70
2021/01/08 10:12:17;;;;;;;25.80;14.20;;;6.10;92.70;;;;;;5073108;28;20036;-70
2021/01/08 10:14:43;;;;;;;26.65;14.57;;;6.10;92.60;;;;;;5072881;28;20040;-71
2021/01/08 10:17:10;;;;;;;29.88;15.60;;;6.20;92.70;;;;;;5064342;28;20036;-72
2021/01/08 10:19:36;;;;;;;27.92;14.57;;;6.20;92.60;;;;;;5071819;28;20028;-70
2021/01/08 10:22:03;;;;;;;29.00;14.60;;;6.20;92.60;;;;;;5063743;28;20131;-71
2021/01/08 10:24:28;;;;;;;26.52;15.25;;;6.20;92.60;;;;;;5060351;28;20087;-71
2021/01/08 10:26:54;;;;;;;24.80;13.98;;;6.20;92.60;;;;;;5057143;28;20056;-71
2021/01/08 10:29:27;;;;;;;25.50;14.32;;;6.20;92.60;;;;;;5052527;28;20028;-72
2021/01/08 10:31:53;;;;;;;24.60;13.65;;;6.20;92.60;;;;;;5067896;28;20033;-71
2021/01/08 10:34:18;;;;;;;25.33;13.95;;;6.30;92.50;;;;;;5056344;28;20032;-72
2021/01/08 10:36:44;;;;;;;24.67;13.80;;;6.30;92.60;;;;;;5071921;28;20115;-72
2021/01/08 10:39:09;;;;;;;26.15;14.75;;;6.30;92.60;;;;;;5062751;28;20342;-72
2021/01/08 10:41:35;;;;;;;28.52;15.25;;;6.30;92.50;;;;;;5067557;28;20123;-72
2021/01/08 10:44:00;;;;;;;25.50;14.45;;;6.30;92.50;;;;;;5071913;28;20024;-71
2021/01/08 10:46:26;;;;;;;24.63;13.45;;;6.30;92.50;;;;;;5067862;28;20044;-72
2021/01/08 10:48:51;;;;;;;27.08;15.50;;;6.30;92.60;;;;;;5050796;28;20100;-71
2021/01/08 10:51:17;;;;;;;25.80;14.38;;;6.30;92.60;;;;;;5052300;28;20036;-71
2021/01/08 10:53:42;;;;;;;26.77;14.85;;;6.20;92.60;;;;;;5052138;28;20044;-73
2021/01/08 10:56:08;;;;;;;27.92;14.82;;;6.30;92.70;;;;;;5059549;28;20060;-72
2021/01/08 10:58:36;;;;;;;26.83;14.30;;;6.20;92.70;;;;;;5069799;28;20029;-72
2021/01/08 11:01:02;;;;;;;28.63;14.70;;;6.20;92.70;;;;;;5052334;28;20032;-72
2021/01/08 11:03:28;;;;;;;27.67;15.95;;;6.20;92.70;;;;;;5052565;28;20029;-72
2021/01/08 11:05:53;;;;;;;26.10;14.27;;;6.30;92.70;;;;;;5071343;28;20042;-72
2021/01/08 11:08:19;;;;;;;25.25;14.55;;;6.30;92.60;;;;;;5071872;28;20103;-71
2021/01/08 11:10:44;;;;;;;22.55;13.48;;;6.30;92.60;;;;;;5069624;28;20029;-72
2021/01/08 11:13:10;;;;;;;23.10;13.30;;;6.30;92.60;;;;;;5053153;28;20527;-72
2021/01/08 11:15:35;;;;;;;23.75;13.30;;;6.40;92.60;;;;;;5051175;28;20025;-72
2021/01/08 11:18:01;;;;;;;22.45;13.52;;;6.30;92.50;;;;;;5051846;28;20021;-72
2021/01/08 11:20:26;;;;;;;21.10;11.95;;;6.30;92.60;;;;;;5050264;28;20025;-72
2021/01/08 11:22:54;;;;;;;23.77;12.90;;;6.30;92.50;;;;;;5051246;28;20070;-72
2021/01/08 11:25:19;;;;;;;22.13;12.48;;;6.30;92.50;;;;;;5057208;28;20091;-72
2021/01/08 11:27:45;;;;;;;21.92;12.48;;;6.30;92.60;;;;;;5055610;28;20477;-71
2021/01/08 11:30:12;;;;;;;21.52;12.05;;;6.30;92.40;;;;;;5052420;28;20075;-71
2021/01/08 11:32:38;;;;;;;19.58;11.98;;;6.30;92.40;;;;;;5061698;28;20032;-72
2021/01/08 11:35:04;;;;;;;19.60;11.50;;;6.40;92.30;;;;;;5071246;28;20474;-72
2021/01/08 11:37:32;;;;;;;23.42;13.30;;;6.40;92.20;;;;;;5058063;28;20044;-72
2021/01/08 11:39:57;;;;;;;22.17;11.93;;;6.40;92.20;;;;;;5065873;28;20032;-71
2021/01/08 11:42:24;;;;;;;24.15;13.60;;;6.30;92.30;;;;;;5070995;28;20012;-73
2021/01/08 11:44:49;;;;;;;19.60;11.77;;;6.30;92.20;;;;;;5068719;28;20055;-72
2021/01/08 11:47:15;;;;;;;22.60;12.60;;;6.40;92.20;;;;;;5056128;28;20021;-72
2021/01/08 11:49:40;;;;;;;22.20;12.13;;;6.40;92.10;;;;;;5052186;28;20063;-73
2021/01/08 11:52:06;;;;;;;21.48;11.75;;;6.40;92.20;;;;;;5066868;28;20360;-72
2021/01/08 11:54:31;;;;;;;22.67;12.25;;;6.30;92.20;;;;;;5071488;28;20400;-71
2021/01/08 11:56:57;;;;;;;20.13;11.10;;;6.30;92.30;;;;;;5071150;28;20016;-70
2021/01/08 11:59:22;;;;;;;21.27;11.38;;;6.30;92.30;;;;;;5071502;28;20538;-71
2021/01/08 12:01:48;;;;;;;20.23;11.30;;;6.30;92.30;;;;;;5060692;28;20032;-70
2021/01/08 12:04:13;;;;;;;18.17;11.57;;;6.30;92.40;;;;;;5059542;28;20585;-71
2021/01/08 12:06:39;;;;;;;18.35;11.23;;;6.30;92.30;;;;;;5056592;28;20477;-71
2021/01/08 12:09:10;;;;;;;20.00;12.02;;;6.30;92.30;;;;;;5053929;28;20035;-71
2021/01/08 12:11:35;;;;;;;20.65;10.95;;;6.30;92.30;;;;;;5050992;28;20481;-71
2021/01/08 12:14:01;;;;;;;21.35;11.70;;;6.30;92.30;;;;;;5051036;28;20040;-72
2021/01/08 12:16:28;;;;;;;18.45;10.02;;;6.30;92.30;;;;;;5057853;28;20032;-71
2021/01/08 12:18:54;;;;;;;21.50;10.93;;;6.30;92.40;;;;;;5060524;28;20388;-71
2021/01/08 12:21:22;;;;;;;18.23;10.40;;;6.30;92.40;;;;;;5073424;28;20028;-71
2021/01/08 12:23:48;;;;;;;17.63;10.45;;;6.30;92.40;;;;;;5060063;28;20032;-71
2021/01/08 12:26:15;;;;;;;18.15;10.57;;;6.30;92.40;;;;;;5053027;28;20037;-71
2021/01/08 12:28:40;;;;;;;18.92;10.93;;;6.40;92.50;;;;;;5059877;28;20112;-71
2021/01/08 12:31:06;;;;;;;18.25;11.15;;;6.40;92.40;;;;;;5068107;28;20064;-70
2021/01/08 12:33:31;;;;;;;17.45;10.50;;;6.40;92.40;;;;;;5073017;28;20491;-71
2021/01/08 12:35:57;;;;;;;19.40;10.70;;;6.40;92.40;;;;;;5058864;28;20079;-72
2021/01/08 12:38:22;;;;;;;16.17;9.52;;;6.40;92.30;;;;;;5054662;28;20572;-71
2021/01/08 12:40:48;;;;;;;16.98;9.68;;;6.40;92.10;;;;;;5054654;28;20025;-71